createdAt,value
2022-12-23T00:01:24.036Z,10.19
2022-12-23T00:03:55.733Z,10.20
2022-12-23T00:06:23.877Z,10.24
2022-12-23T00:08:58.342Z,10.13
2022-12-23T00:11:28.567Z,10.13
2022-12-23T00:14:20.423Z,10.17
2022-12-23T00:16:49.920Z,10.16
2022-12-23T00:19:19.435Z,10.10
2022-12-23T00:21:48.464Z,10.05
2022-12-23T00:24:16.596Z,9.95
2022-12-23T00:26:44.612Z,10.03
2022-12-23T00:29:12.613Z,10.00
2022-12-23T00:31:40.972Z,9.98
2022-12-23T00:34:10.322Z,9.99
2022-12-23T00:36:40.869Z,9.93
2022-12-23T00:39:30.703Z,9.95
2022-12-23T00:42:16.119Z,9.91
2022-12-23T00:44:44.183Z,9.92
2022-12-23T00:47:32.185Z,9.90
2022-12-23T00:49:59.265Z,9.88
2022-12-23T00:52:28.651Z,9.89
2022-12-23T00:54:56.647Z,9.82
2022-12-23T00:57:24.652Z,9.83
2022-12-23T00:59:55.012Z,9.91
2022-12-23T01:02:40.539Z,9.84
2022-12-23T01:05:29.634Z,9.80
2022-12-23T01:07:59.116Z,9.77
2022-12-23T01:10:27.149Z,9.71
2022-12-23T01:12:55.408Z,9.71
2022-12-23T01:15:23.729Z,9.74
2022-12-23T01:17:57.271Z,9.75
2022-12-23T01:20:25.702Z,9.67
2022-12-23T01:22:53.685Z,9.72
2022-12-23T01:25:23.082Z,9.71
2022-12-23T01:27:51.060Z,9.74
2022-12-23T01:30:19.109Z,9.75
2022-12-23T01:32:49.836Z,9.75
2022-12-23T01:35:17.992Z,9.68
2022-12-23T01:37:46.000Z,9.71
2022-12-23T01:40:14.223Z,9.64
2022-12-23T01:42:45.329Z,9.66
2022-12-23T01:45:17.055Z,9.67
2022-12-23T01:47:50.563Z,9.71
2022-12-23T01:50:23.291Z,9.65
2022-12-23T01:52:59.352Z,9.65
2022-12-23T01:55:34.332Z,9.65
2022-12-23T01:58:09.436Z,9.65
2022-12-23T02:01:07.924Z,9.62
2022-12-23T02:03:45.147Z,9.65
2022-12-23T02:06:36.640Z,9.57
2022-12-23T02:09:18.549Z,9.60
2022-12-23T02:12:13.064Z,9.63
2022-12-23T02:15:19.663Z,9.58
2022-12-23T02:17:58.837Z,9.57
2022-12-23T02:20:47.248Z,9.58
2022-12-23T02:23:48.086Z,9.55
2022-12-23T02:26:37.061Z,9.56
2022-12-23T02:29:30.040Z,9.49
2022-12-23T02:32:04.340Z,9.41
2022-12-23T02:34:40.382Z,9.38
2022-12-23T02:37:17.610Z,9.40
2022-12-23T02:39:53.134Z,9.45
2022-12-23T02:42:24.671Z,9.41
2022-12-23T02:45:00.641Z,9.57
2022-12-23T02:47:34.677Z,9.44
2022-12-23T02:50:10.642Z,9.45
2022-12-23T02:52:42.347Z,9.47
2022-12-23T02:55:13.499Z,9.38
2022-12-23T02:57:46.435Z,9.38
2022-12-23T03:00:16.147Z,9.33
2022-12-23T03:02:46.347Z,9.35
2022-12-23T03:05:29.833Z,9.30
2022-12-23T03:08:02.707Z,9.31
2022-12-23T03:10:40.759Z,9.37
2022-12-23T03:13:17.812Z,9.28
2022-12-23T03:15:51.771Z,9.25
2022-12-23T03:18:29.408Z,9.27
2022-12-23T03:21:07.478Z,9.27
2022-12-23T03:23:41.830Z,9.19
2022-12-23T03:26:16.986Z,9.20
2022-12-23T03:28:50.649Z,9.19
2022-12-23T03:31:25.631Z,9.24
2022-12-23T03:33:59.497Z,9.21
2022-12-23T03:36:30.782Z,9.19
2022-12-23T03:38:59.705Z,9.18
2022-12-23T03:41:32.614Z,9.23
2022-12-23T03:44:05.025Z,9.19
2022-12-23T03:46:37.594Z,9.25
2022-12-23T03:49:10.125Z,9.16
2022-12-23T03:51:48.936Z,9.18
2022-12-23T03:54:23.192Z,9.15
2022-12-23T03:56:58.145Z,9.15
2022-12-23T03:59:29.497Z,9.10
2022-12-23T04:02:06.573Z,9.14
2022-12-23T04:04:47.238Z,9.12
2022-12-23T04:07:20.449Z,9.12
2022-12-23T04:09:49.236Z,9.12
2022-12-23T04:12:17.287Z,9.13
2022-12-23T04:14:48.526Z,9.13
2022-12-23T04:17:17.683Z,9.14
2022-12-23T04:19:47.586Z,9.08
2022-12-23T04:22:16.954Z,9.05
2022-12-23T04:24:44.942Z,9.05
2022-12-23T04:27:14.819Z,9.05
2022-12-23T04:29:42.886Z,9.06
2022-12-23T04:32:11.223Z,9.10
2022-12-23T04:34:39.198Z,9.08
2022-12-23T04:37:08.631Z,9.12
2022-12-23T04:39:38.805Z,9.09
2022-12-23T04:42:06.888Z,9.07
2022-12-23T04:44:36.066Z,9.03
2022-12-23T04:47:04.114Z,9.04
2022-12-23T04:49:32.337Z,9.05
2022-12-23T04:52:01.545Z,9.05
2022-12-23T04:54:31.082Z,9.02
2022-12-23T04:56:59.035Z,9.02
2022-12-23T04:59:27.381Z,9.04
2022-12-23T05:01:55.501Z,9.03
2022-12-23T05:04:23.567Z,9.03
2022-12-23T05:06:51.578Z,9.03
2022-12-23T05:09:19.896Z,9.01
2022-12-23T05:11:49.195Z,9.00
2022-12-23T05:14:17.250Z,9.01
2022-12-23T05:16:45.280Z,8.97
2022-12-23T05:19:13.391Z,8.99
2022-12-23T05:21:41.360Z,9.02
2022-12-23T05:24:09.738Z,8.99
2022-12-23T05:26:37.696Z,8.99
2022-12-23T05:29:07.085Z,8.97
2022-12-23T05:31:35.179Z,8.97
2022-12-23T05:34:06.691Z,8.96
2022-12-23T05:36:35.083Z,8.96
2022-12-23T05:39:03.258Z,8.94
2022-12-23T05:41:31.261Z,8.92
2022-12-23T05:43:59.271Z,8.93
2022-12-23T05:46:28.656Z,8.94
2022-12-23T05:48:56.681Z,8.94
2022-12-23T05:51:24.835Z,8.94
2022-12-23T05:53:52.878Z,8.95
2022-12-23T05:56:20.883Z,8.90
2022-12-23T05:58:49.047Z,8.87
2022-12-23T06:01:17.070Z,8.93
2022-12-23T06:03:46.586Z,8.90
2022-12-23T06:06:15.149Z,8.92
2022-12-23T06:08:43.213Z,8.92
2022-12-23T06:11:11.230Z,8.87
2022-12-23T06:13:39.328Z,8.85
2022-12-23T06:16:07.978Z,8.88
2022-12-23T06:18:36.085Z,8.85
2022-12-23T06:21:06.004Z,8.84
2022-12-23T06:23:34.135Z,8.83
2022-12-23T06:26:02.637Z,8.81
2022-12-23T06:28:30.807Z,8.78
2022-12-23T06:30:59.224Z,8.77
2022-12-23T06:33:28.920Z,8.83
2022-12-23T06:35:56.982Z,8.82
2022-12-23T06:38:26.333Z,8.81
2022-12-23T06:40:54.508Z,8.73
2022-12-23T06:43:22.550Z,8.73
2022-12-23T06:45:50.735Z,8.78
2022-12-23T06:48:18.864Z,8.75
2022-12-23T06:50:46.920Z,8.71
2022-12-23T06:53:15.697Z,8.69
2022-12-23T06:55:45.071Z,8.70
2022-12-23T06:58:13.131Z,8.65
2022-12-23T07:00:41.103Z,8.72
2022-12-23T07:03:09.296Z,8.71
2022-12-23T07:05:37.969Z,8.64
2022-12-23T07:08:06.558Z,8.64
2022-12-23T07:10:35.281Z,8.59
2022-12-23T07:13:04.693Z,8.55
2022-12-23T07:15:32.921Z,8.54
2022-12-23T07:18:00.966Z,8.50
2022-12-23T07:20:29.076Z,8.46
2022-12-23T07:22:57.181Z,8.49
2022-12-23T07:25:26.083Z,8.49
2022-12-23T07:27:55.197Z,8.46
2022-12-23T07:30:25.806Z,8.49
2022-12-23T07:32:54.369Z,8.45
2022-12-23T07:35:22.381Z,8.47
2022-12-23T07:37:53.658Z,8.39
2022-12-23T07:40:21.618Z,8.36
2022-12-23T07:42:50.964Z,8.35
2022-12-23T07:45:18.971Z,8.36
2022-12-23T07:47:48.355Z,8.34
2022-12-23T07:50:17.190Z,8.34
2022-12-23T07:52:45.251Z,8.28
2022-12-23T07:55:13.633Z,8.26
2022-12-23T07:57:41.654Z,8.30
2022-12-23T08:00:12.035Z,8.26
2022-12-23T08:02:43.518Z,8.24
2022-12-23T08:05:13.906Z,8.26
2022-12-23T08:07:42.384Z,8.27
2022-12-23T08:10:11.235Z,8.24
2022-12-23T08:12:42.699Z,8.22
2022-12-23T08:15:11.108Z,8.23
2022-12-23T08:17:39.074Z,8.22
2022-12-23T08:20:08.443Z,8.24
2022-12-23T08:22:38.041Z,8.23
2022-12-23T08:25:06.865Z,8.22
2022-12-23T08:27:35.786Z,8.23
2022-12-23T08:30:04.153Z,8.20
2022-12-23T08:32:32.152Z,8.25
2022-12-23T08:35:00.303Z,8.17
2022-12-23T08:37:28.382Z,8.20
2022-12-23T08:39:57.757Z,8.21
2022-12-23T08:42:25.850Z,8.21
2022-12-23T08:44:54.013Z,8.17
2022-12-23T08:47:21.971Z,8.15
2022-12-23T08:49:49.964Z,8.19
2022-12-23T08:52:17.952Z,8.25
2022-12-23T08:54:45.990Z,8.18
2022-12-23T08:57:15.395Z,8.18
2022-12-23T08:59:43.432Z,8.17
2022-12-23T09:02:12.671Z,8.18
2022-12-23T09:04:40.741Z,8.06
2022-12-23T09:07:08.729Z,8.08
2022-12-23T09:09:38.247Z,8.04
2022-12-23T09:12:06.529Z,8.03
2022-12-23T09:14:35.878Z,8.11
2022-12-23T09:17:03.947Z,8.11
2022-12-23T09:19:32.119Z,8.07
2022-12-23T09:22:00.132Z,8.12
2022-12-23T09:24:28.101Z,8.15
2022-12-23T09:26:56.142Z,8.16
2022-12-23T09:29:24.315Z,8.17
2022-12-23T09:31:53.753Z,8.19
2022-12-23T09:34:21.776Z,8.20
2022-12-23T09:36:55.087Z,8.21
2022-12-23T09:39:24.239Z,8.27
2022-12-23T09:42:05.151Z,8.21
2022-12-23T09:44:50.307Z,8.29
2022-12-23T09:47:23.571Z,8.32
2022-12-23T09:49:54.618Z,8.30
2022-12-23T09:52:25.357Z,8.27
2022-12-23T09:54:55.922Z,8.28
2022-12-23T09:57:30.979Z,8.30
2022-12-23T10:00:07.168Z,8.31
2022-12-23T10:02:48.323Z,8.32
2022-12-23T10:05:31.047Z,8.34
2022-12-23T10:08:03.370Z,8.35
2022-12-23T10:10:38.601Z,8.34
2022-12-23T10:13:17.585Z,8.35
2022-12-23T10:15:49.238Z,8.36
2022-12-23T10:18:24.531Z,8.37
2022-12-23T10:20:57.172Z,8.37
2022-12-23T10:23:31.234Z,8.41
2022-12-23T10:25:59.311Z,8.51
2022-12-23T10:28:30.103Z,8.52
2022-12-23T10:31:30.929Z,8.59
2022-12-23T10:34:03.892Z,8.60
2022-12-23T10:36:41.777Z,8.67
2022-12-23T10:39:18.185Z,8.66
2022-12-23T10:41:53.204Z,8.69
2022-12-23T10:44:46.718Z,8.74
2022-12-23T10:47:25.524Z,8.78
2022-12-23T10:50:10.511Z,8.81
2022-12-23T10:52:42.035Z,8.80
2022-12-23T10:55:22.337Z,8.81
2022-12-23T10:57:51.634Z,8.89
2022-12-23T11:00:23.962Z,8.92
2022-12-23T11:03:08.902Z,8.90
2022-12-23T11:05:38.335Z,8.85
2022-12-23T11:08:07.124Z,8.80
2022-12-23T11:10:35.186Z,8.95
2022-12-23T11:13:03.409Z,8.95
2022-12-23T11:15:34.380Z,8.94
2022-12-23T11:18:07.724Z,9.05
2022-12-23T11:20:38.182Z,9.10
2022-12-23T11:23:08.143Z,9.10
2022-12-23T11:25:41.486Z,9.19
2022-12-23T11:28:16.212Z,9.22
2022-12-23T11:30:56.491Z,9.24
2022-12-23T11:33:27.401Z,9.30
2022-12-23T11:36:06.405Z,9.41
2022-12-23T11:38:36.204Z,9.42
2022-12-23T11:41:06.216Z,9.48
2022-12-23T11:43:34.913Z,9.55
2022-12-23T11:46:18.205Z,9.64
2022-12-23T11:48:54.349Z,9.70
2022-12-23T11:51:27.972Z,9.72
2022-12-23T11:54:01.502Z,9.79
2022-12-23T11:56:37.375Z,9.84
2022-12-23T11:59:09.449Z,9.90
2022-12-23T12:01:39.449Z,10.01
2022-12-23T12:04:10.320Z,10.03
2022-12-23T12:06:52.664Z,10.08
2022-12-23T12:09:25.057Z,10.13
2022-12-23T12:11:58.482Z,10.14
2022-12-23T12:14:35.005Z,10.19
2022-12-23T12:17:10.060Z,10.25
2022-12-23T12:19:44.780Z,10.29
2022-12-23T12:22:19.416Z,10.29
2022-12-23T12:24:54.043Z,10.37
2022-12-23T12:27:34.283Z,10.51
2022-12-23T12:30:08.683Z,10.63
2022-12-23T12:32:47.600Z,10.62
2022-12-23T12:35:21.115Z,10.67
2022-12-23T12:37:56.529Z,10.69
2022-12-23T12:40:32.479Z,10.79
2022-12-23T12:43:05.961Z,10.89
2022-12-23T12:45:40.627Z,10.90
2022-12-23T12:48:25.017Z,11.02
2022-12-23T12:51:01.411Z,11.14
2022-12-23T12:53:33.367Z,11.31
2022-12-23T12:56:09.918Z,11.45
2022-12-23T12:58:38.858Z,11.40
2022-12-23T13:01:23.260Z,11.40
2022-12-23T13:04:15.868Z,11.45
2022-12-23T13:06:54.114Z,11.37
2022-12-23T13:09:33.377Z,11.29
2022-12-23T13:12:08.582Z,11.33
2022-12-23T13:14:56.806Z,11.47
2022-12-23T13:17:27.854Z,11.46
2022-12-23T13:19:59.006Z,11.40
2022-12-23T13:22:33.948Z,11.38
2022-12-23T13:25:11.787Z,11.41
2022-12-23T13:27:47.535Z,11.48
2022-12-23T13:30:17.978Z,11.47
2022-12-23T13:33:06.853Z,11.48
2022-12-23T13:36:09.291Z,11.57
2022-12-23T13:38:51.858Z,11.64
2022-12-23T13:41:31.332Z,11.58
2022-12-23T13:44:01.075Z,11.80
2022-12-23T13:46:41.172Z,11.71
2022-12-23T13:49:21.237Z,11.72
2022-12-23T13:51:56.202Z,11.85
2022-12-23T13:54:37.442Z,11.70
2022-12-23T13:57:12.988Z,11.84
2022-12-23T13:59:43.309Z,11.81
2022-12-23T14:02:44.661Z,11.78
2022-12-23T14:05:34.240Z,11.87
2022-12-23T14:08:04.935Z,11.94
2022-12-23T14:10:35.352Z,11.95
2022-12-23T14:13:07.803Z,11.90
2022-12-23T14:16:09.101Z,11.80
2022-12-23T14:19:03.134Z,11.88
2022-12-23T14:21:41.567Z,11.83
2022-12-23T14:25:01.636Z,11.81
2022-12-23T14:27:42.644Z,11.78
2022-12-23T14:30:16.906Z,11.78
2022-12-23T14:32:49.172Z,11.73
2022-12-23T14:35:27.034Z,11.74
2022-12-23T14:38:26.040Z,11.73
2022-12-23T14:41:01.090Z,11.70
2022-12-23T14:43:34.602Z,11.71
2022-12-23T14:46:06.604Z,11.74
2022-12-23T14:49:37.546Z,11.71
2022-12-23T14:52:44.879Z,11.65
2022-12-23T14:55:46.664Z,11.57
2022-12-23T14:58:38.835Z,11.51
2022-12-23T15:01:12.629Z,11.53
2022-12-23T15:03:47.259Z,11.53
2022-12-23T15:06:28.491Z,11.45
2022-12-23T15:08:57.875Z,11.40
2022-12-23T15:11:30.487Z,11.37
2022-12-23T15:14:01.002Z,11.34
2022-12-23T15:16:37.561Z,11.29
2022-12-23T15:19:18.768Z,11.33
2022-12-23T15:21:49.251Z,11.32
2022-12-23T15:24:23.888Z,11.24
2022-12-23T15:27:24.551Z,11.23
2022-12-23T15:29:48.461Z,11.14
2022-12-23T15:32:17.370Z,11.13
2022-12-23T15:34:45.690Z,11.15
2022-12-23T15:37:16.451Z,11.09
2022-12-23T15:39:55.225Z,11.09
2022-12-23T15:42:32.326Z,11.13
2022-12-23T15:45:00.389Z,11.07
2022-12-23T15:47:31.610Z,11.03
2022-12-23T15:50:00.674Z,11.00
2022-12-23T15:52:30.585Z,10.99
2022-12-23T15:55:03.764Z,10.92
2022-12-23T15:57:49.530Z,10.93
2022-12-23T16:00:23.354Z,10.82
2022-12-23T16:03:02.390Z,10.78
2022-12-23T16:05:33.279Z,10.78
2022-12-23T16:08:12.190Z,10.75
2022-12-23T16:10:41.373Z,10.70
2022-12-23T16:13:18.418Z,10.72
2022-12-23T16:15:46.625Z,10.59
2022-12-23T16:18:20.822Z,10.53
2022-12-23T16:20:53.573Z,10.52
2022-12-23T16:23:23.116Z,10.55
2022-12-23T16:25:53.939Z,10.51
2022-12-23T16:28:28.911Z,10.46
2022-12-23T16:30:59.405Z,10.48
2022-12-23T16:33:37.006Z,10.43
2022-12-23T16:36:23.838Z,10.37
2022-12-23T16:38:53.718Z,10.44
2022-12-23T16:41:21.848Z,10.41
2022-12-23T16:43:52.750Z,10.43
2022-12-23T16:46:23.219Z,10.33
2022-12-23T16:48:55.464Z,10.31
2022-12-23T16:51:26.329Z,10.33
2022-12-23T16:53:56.409Z,10.31
2022-12-23T16:56:28.515Z,10.36
2022-12-23T16:58:57.975Z,10.33
2022-12-23T17:01:28.879Z,10.29
2022-12-23T17:03:57.102Z,10.28
2022-12-23T17:06:26.053Z,10.30
2022-12-23T17:08:54.885Z,10.30
2022-12-23T17:11:25.371Z,10.28
2022-12-23T17:13:58.018Z,10.29
2022-12-23T17:16:31.277Z,10.29
2022-12-23T17:19:00.111Z,10.26
2022-12-23T17:21:32.410Z,10.35
2022-12-23T17:24:05.714Z,10.36
2022-12-23T17:26:33.687Z,10.39
2022-12-23T17:29:03.473Z,10.33
2022-12-23T17:31:34.174Z,10.28
2022-12-23T17:34:02.806Z,10.26
2022-12-23T17:36:31.221Z,10.35
2022-12-23T17:38:59.305Z,10.28
2022-12-23T17:41:30.926Z,10.27
2022-12-23T17:43:59.629Z,10.11
2022-12-23T17:46:28.516Z,10.18
2022-12-23T17:48:59.216Z,10.18
2022-12-23T17:51:28.247Z,10.16
2022-12-23T17:53:58.173Z,10.12
2022-12-23T17:56:28.526Z,10.11
2022-12-23T17:58:56.835Z,10.08
2022-12-23T18:01:27.203Z,10.04
2022-12-23T18:03:57.715Z,10.06
2022-12-23T18:06:27.820Z,9.99
2022-12-23T18:08:56.963Z,9.92
2022-12-23T18:11:30.793Z,9.98
2022-12-23T18:13:59.084Z,9.97
2022-12-23T18:16:27.140Z,9.97
2022-12-23T18:18:55.338Z,9.95
2022-12-23T18:21:27.311Z,9.98
2022-12-23T18:23:57.669Z,9.99
2022-12-23T18:26:26.001Z,10.00
2022-12-23T18:28:54.676Z,10.03
2022-12-23T18:31:27.293Z,10.01
2022-12-23T18:33:55.750Z,9.93
2022-12-23T18:36:27.085Z,9.96
2022-12-23T18:38:57.145Z,9.99
2022-12-23T18:41:26.969Z,9.93
2022-12-23T18:43:55.354Z,9.99
2022-12-23T18:46:23.624Z,9.89
2022-12-23T18:48:52.144Z,9.90
2022-12-23T18:51:22.311Z,9.86
2022-12-23T18:53:52.073Z,9.83
2022-12-23T18:56:21.105Z,9.83
2022-12-23T18:58:49.444Z,9.76
2022-12-23T19:01:19.245Z,9.81
2022-12-23T19:03:47.663Z,9.86
2022-12-23T19:06:16.679Z,9.80
2022-12-23T19:08:45.208Z,9.83
2022-12-23T19:11:16.471Z,9.74
2022-12-23T19:13:46.781Z,9.79
2022-12-23T19:16:16.622Z,9.77
2022-12-23T19:18:45.318Z,9.67
2022-12-23T19:21:13.354Z,9.69
2022-12-23T19:23:42.452Z,9.65
2022-12-23T19:26:10.564Z,9.61
2022-12-23T19:28:41.367Z,9.67
2022-12-23T19:31:09.871Z,9.62
2022-12-23T19:33:38.560Z,9.63
2022-12-23T19:36:11.121Z,9.56
2022-12-23T19:38:39.596Z,9.56
2022-12-23T19:41:08.247Z,9.49
2022-12-23T19:43:37.429Z,9.47
2022-12-23T19:46:09.863Z,9.44
2022-12-23T19:48:38.304Z,9.50
2022-12-23T19:51:08.149Z,9.50
2022-12-23T19:53:36.923Z,9.44
2022-12-23T19:56:09.065Z,9.47
2022-12-23T19:58:40.129Z,9.44
2022-12-23T20:01:10.364Z,9.38
2022-12-23T20:03:39.309Z,9.32
2022-12-23T20:06:09.237Z,9.27
2022-12-23T20:08:37.219Z,9.31
2022-12-23T20:11:07.139Z,9.25
2022-12-23T20:13:35.813Z,9.33
2022-12-23T20:16:04.346Z,9.27
2022-12-23T20:18:33.868Z,9.30
2022-12-23T20:21:02.152Z,9.24
2022-12-23T20:23:33.380Z,9.24
2022-12-23T20:26:01.489Z,9.26
2022-12-23T20:28:29.682Z,9.21
2022-12-23T20:31:02.778Z,9.23
2022-12-23T20:33:30.845Z,9.21
2022-12-23T20:36:00.168Z,9.20
2022-12-23T20:38:28.375Z,9.21
2022-12-23T20:40:56.334Z,9.20
2022-12-23T20:43:24.629Z,9.17
2022-12-23T20:45:53.043Z,9.22
2022-12-23T20:48:21.755Z,9.19
2022-12-23T20:50:49.892Z,9.16
2022-12-23T20:53:19.382Z,9.14
2022-12-23T20:55:47.434Z,9.16
2022-12-23T20:58:33.304Z,9.17
2022-12-23T21:01:09.278Z,9.11
2022-12-23T21:03:37.400Z,9.17
2022-12-23T21:06:06.163Z,9.08
2022-12-23T21:08:35.866Z,9.15
2022-12-23T21:11:04.262Z,9.05
2022-12-23T21:13:32.338Z,9.12
2022-12-23T21:16:04.257Z,9.11
2022-12-23T21:18:32.487Z,9.07
2022-12-23T21:21:01.062Z,9.05
2022-12-23T21:23:29.655Z,9.06
2022-12-23T21:26:11.412Z,8.98
2022-12-23T21:28:39.995Z,9.03
2022-12-23T21:31:08.864Z,8.98
2022-12-23T21:33:38.626Z,8.96
2022-12-23T21:36:08.016Z,8.98
2022-12-23T21:38:38.339Z,8.99
2022-12-23T21:41:09.981Z,8.96
2022-12-23T21:43:38.569Z,8.94
2022-12-23T21:46:08.604Z,8.93
2022-12-23T21:48:37.830Z,8.91
2022-12-23T21:51:07.160Z,8.90
2022-12-23T21:53:35.703Z,8.90
2022-12-23T21:56:05.635Z,8.92
2022-12-23T21:58:36.017Z,8.87
2022-12-23T22:01:08.541Z,8.85
2022-12-23T22:03:36.958Z,8.92
2022-12-23T22:06:10.182Z,8.84
2022-12-23T22:08:39.637Z,8.91
2022-12-23T22:11:09.047Z,8.94
2022-12-23T22:13:39.125Z,8.93
2022-12-23T22:16:11.038Z,8.88
2022-12-23T22:18:39.927Z,8.90
2022-12-23T22:21:10.183Z,8.89
2022-12-23T22:23:38.841Z,8.91
2022-12-23T22:26:08.529Z,8.98
2022-12-23T22:28:39.513Z,8.98
2022-12-23T22:31:14.471Z,8.94
2022-12-23T22:34:08.717Z,8.97
2022-12-23T22:36:36.868Z,9.02
2022-12-23T22:39:07.560Z,8.99
2022-12-23T22:41:36.104Z,9.01
2022-12-23T22:44:05.629Z,9.08
2022-12-23T22:46:33.910Z,9.06
2022-12-23T22:49:02.162Z,9.02
2022-12-23T22:51:31.625Z,9.07
2022-12-23T22:54:02.392Z,9.06
2022-12-23T22:56:30.718Z,9.04
2022-12-23T22:58:58.791Z,9.05
2022-12-23T23:01:30.184Z,9.03
2022-12-23T23:04:01.564Z,9.00
2022-12-23T23:06:31.113Z,9.07
2022-12-23T23:08:59.238Z,9.03
2022-12-23T23:11:29.024Z,9.11
2022-12-23T23:13:57.420Z,9.10
2022-12-23T23:16:26.396Z,9.10
2022-12-23T23:18:55.851Z,9.13
2022-12-23T23:21:24.094Z,9.19
2022-12-23T23:23:52.152Z,9.14
2022-12-23T23:26:20.809Z,9.08
2022-12-23T23:28:49.174Z,9.13
2022-12-23T23:31:41.142Z,9.11
2022-12-23T23:34:06.667Z,9.12
2022-12-23T23:36:34.762Z,9.09
2022-12-23T23:39:02.828Z,9.08
2022-12-23T23:41:30.896Z,9.10
2022-12-23T23:43:58.956Z,9.09
2022-12-23T23:46:26.989Z,9.10
2022-12-23T23:48:55.070Z,9.08
2022-12-23T23:51:24.914Z,9.12
2022-12-23T23:53:52.905Z,9.13
2022-12-23T23:56:25.365Z,9.07
2022-12-23T23:58:54.911Z,9.06
